createdAt,value
2018-01-10T00:01:02.718Z,79.62
2018-01-10T00:03:30.312Z,79.11
2018-01-10T00:05:57.887Z,79.81
2018-01-10T00:08:25.444Z,79.77
2018-01-10T00:10:53.582Z,79.83
2018-01-10T00:13:21.134Z,79.73
2018-01-10T00:15:48.696Z,80.25
2018-01-10T00:18:16.473Z,79.75
2018-01-10T00:20:44.059Z,79.27
2018-01-10T00:23:11.634Z,79.23
2018-01-10T00:25:39.411Z,79.35
2018-01-10T00:28:07.333Z,79.42
2018-01-10T00:30:34.972Z,79.62
2018-01-10T00:33:02.525Z,79.66
2018-01-10T00:35:30.660Z,79.53
2018-01-10T00:37:59.665Z,79.64
2018-01-10T00:40:27.255Z,79.68
2018-01-10T00:42:55.063Z,78.78
2018-01-10T00:45:22.644Z,78.76
2018-01-10T00:47:50.469Z,78.27
2018-01-10T00:50:18.664Z,79.08
2018-01-10T00:52:46.268Z,78.84
2018-01-10T00:55:13.856Z,79.38
2018-01-10T00:57:42.104Z,78.89
2018-01-10T01:00:09.869Z,79.47
2018-01-10T01:02:37.434Z,79.26
2018-01-10T01:05:06.857Z,78.56
2018-01-10T01:07:34.581Z,79.30
2018-01-10T01:10:02.270Z,78.73
2018-01-10T01:12:30.741Z,78.00
2018-01-10T01:14:58.347Z,78.36
2018-01-10T01:17:25.960Z,77.71
2018-01-10T01:19:53.563Z,77.54
2018-01-10T01:22:21.185Z,77.74
2018-01-10T01:24:48.742Z,77.20
2018-01-10T01:27:16.393Z,78.07
2018-01-10T01:29:43.967Z,78.85
2018-01-10T01:32:11.535Z,77.32
2018-01-10T01:34:39.576Z,78.00
2018-01-10T01:37:07.416Z,77.91
2018-01-10T01:39:35.121Z,77.39
2018-01-10T01:42:02.933Z,76.87
2018-01-10T01:44:30.537Z,77.54
2018-01-10T01:46:58.107Z,77.99
2018-01-10T01:49:25.715Z,77.63
2018-01-10T01:51:53.266Z,77.28
2018-01-10T01:54:20.865Z,77.89
2018-01-10T01:56:48.981Z,77.73
2018-01-10T01:59:16.662Z,77.43
2018-01-10T02:01:45.123Z,77.24
2018-01-10T02:04:12.740Z,77.53
2018-01-10T02:06:40.570Z,77.90
2018-01-10T02:09:08.173Z,77.71
2018-01-10T02:11:35.988Z,77.36
2018-01-10T02:14:03.574Z,77.00
2018-01-10T02:16:31.160Z,77.61
2018-01-10T02:18:58.928Z,77.58
2018-01-10T02:21:27.069Z,77.83
2018-01-10T02:23:54.629Z,77.12
2018-01-10T02:26:22.199Z,78.62
2018-01-10T02:28:49.957Z,77.81
2018-01-10T02:31:17.538Z,77.33
2018-01-10T02:33:45.277Z,77.61
2018-01-10T02:36:12.865Z,77.53
2018-01-10T02:38:40.479Z,77.64
2018-01-10T02:41:08.028Z,77.54
2018-01-10T02:43:35.816Z,77.66
2018-01-10T02:46:03.388Z,78.06
2018-01-10T02:48:31.888Z,77.47
2018-01-10T02:51:00.466Z,78.10
2018-01-10T02:53:28.124Z,78.17
2018-01-10T02:55:55.920Z,77.42
2018-01-10T02:58:23.566Z,77.11
2018-01-10T03:00:51.348Z,77.03
2018-01-10T03:03:18.920Z,77.23
2018-01-10T03:05:46.711Z,77.91
2018-01-10T03:08:14.545Z,78.16
2018-01-10T03:10:43.008Z,77.35
2018-01-10T03:13:10.572Z,77.76
2018-01-10T03:15:38.153Z,77.61
2018-01-10T03:18:05.928Z,78.47
2018-01-10T03:20:33.690Z,78.40
2018-01-10T03:23:01.618Z,77.95
2018-01-10T03:25:29.165Z,77.74
2018-01-10T03:27:57.720Z,78.36
2018-01-10T03:30:25.322Z,78.42
2018-01-10T03:32:52.919Z,77.57
2018-01-10T03:35:20.515Z,78.52
2018-01-10T03:37:48.134Z,78.99
2018-01-10T03:40:15.733Z,79.06
2018-01-10T03:42:43.531Z,78.02
2018-01-10T03:45:11.079Z,77.68
2018-01-10T03:47:38.833Z,78.52
2018-01-10T03:50:06.448Z,79.17
2018-01-10T03:52:34.080Z,78.00
2018-01-10T03:55:01.726Z,78.10
2018-01-10T03:57:29.481Z,77.70
2018-01-10T03:59:57.276Z,76.96
2018-01-10T04:02:24.882Z,77.94
2018-01-10T04:04:52.668Z,78.45
2018-01-10T04:07:22.531Z,78.68
2018-01-10T04:09:50.133Z,77.41
2018-01-10T04:12:17.726Z,77.79
2018-01-10T04:14:45.282Z,77.72
2018-01-10T04:17:12.944Z,78.48
2018-01-10T04:19:40.517Z,78.52
2018-01-10T04:22:08.253Z,79.45
2018-01-10T04:24:35.807Z,79.05
2018-01-10T04:27:04.205Z,79.77
2018-01-10T04:29:31.741Z,79.60
2018-01-10T04:31:59.337Z,79.62
2018-01-10T04:34:26.888Z,79.91
2018-01-10T04:36:54.468Z,79.29
2018-01-10T04:39:22.261Z,79.73
2018-01-10T04:41:49.901Z,79.10
2018-01-10T04:44:17.431Z,78.67
2018-01-10T04:46:45.032Z,78.50
2018-01-10T04:49:12.666Z,78.44
2018-01-10T04:51:40.596Z,79.25
2018-01-10T04:54:08.197Z,79.30
2018-01-10T04:56:35.747Z,79.46
2018-01-10T04:59:03.352Z,79.84
2018-01-10T05:01:30.929Z,80.25
2018-01-10T05:03:58.810Z,80.16
2018-01-10T05:06:26.413Z,80.25
2018-01-10T05:08:54.034Z,79.86
2018-01-10T05:11:21.834Z,80.25
2018-01-10T05:13:49.449Z,80.76
2018-01-10T05:16:17.087Z,80.69
2018-01-10T05:18:44.614Z,80.43
2018-01-10T05:21:12.244Z,79.52
2018-01-10T05:23:39.837Z,79.51
2018-01-10T05:26:08.121Z,88.48
2018-01-10T05:28:36.064Z,79.92
2018-01-10T05:31:04.094Z,77.87
2018-01-10T05:33:31.943Z,76.99
2018-01-10T05:35:59.531Z,76.70
2018-01-10T05:38:28.070Z,77.44
2018-01-10T05:40:55.760Z,78.43
2018-01-10T05:43:23.611Z,78.67
2018-01-10T05:45:51.385Z,82.63
2018-01-10T05:48:19.168Z,81.85
2018-01-10T05:50:47.133Z,81.33
2018-01-10T05:53:14.750Z,75.94
2018-01-10T05:55:42.339Z,76.11
2018-01-10T05:58:10.238Z,75.93
2018-01-10T06:00:37.904Z,75.62
2018-01-10T06:03:05.689Z,76.17
2018-01-10T06:05:33.952Z,75.84
2018-01-10T06:08:01.556Z,74.72
2018-01-10T06:10:29.156Z,76.08
2018-01-10T06:12:57.373Z,75.45
2018-01-10T06:15:25.000Z,76.04
2018-01-10T06:17:52.573Z,76.29
2018-01-10T06:20:20.115Z,75.93
2018-01-10T06:22:48.223Z,76.59
2018-01-10T06:25:16.048Z,76.63
2018-01-10T06:27:43.624Z,77.18
2018-01-10T06:30:11.345Z,77.70
2018-01-10T06:32:38.914Z,76.72
2018-01-10T06:35:08.046Z,76.95
2018-01-10T06:37:35.669Z,78.40
2018-01-10T06:40:04.224Z,77.70
2018-01-10T06:42:31.996Z,77.79
2018-01-10T06:45:00.560Z,77.87
2018-01-10T06:47:29.249Z,77.29
2018-01-10T06:49:57.699Z,78.50
2018-01-10T06:52:26.047Z,78.22
2018-01-10T06:54:53.715Z,78.42
2018-01-10T06:57:21.492Z,79.53
2018-01-10T06:59:49.913Z,78.44
2018-01-10T07:02:17.986Z,79.58
2018-01-10T07:04:45.603Z,79.21
2018-01-10T07:07:13.365Z,79.04
2018-01-10T07:09:41.007Z,78.95
2018-01-10T07:12:09.450Z,79.63
2018-01-10T07:14:37.042Z,79.19
2018-01-10T07:17:04.663Z,79.25
2018-01-10T07:19:33.160Z,79.77
2018-01-10T07:22:01.400Z,80.16
2018-01-10T07:24:29.653Z,79.64
2018-01-10T07:26:57.202Z,78.52
2018-01-10T07:29:25.732Z,78.68
2018-01-10T07:31:53.331Z,77.81
2018-01-10T07:34:20.914Z,79.64
2018-01-10T07:36:49.217Z,77.65
2018-01-10T07:39:16.822Z,77.57
2018-01-10T07:41:45.159Z,77.95
2018-01-10T07:44:12.731Z,78.34
2018-01-10T07:46:40.543Z,77.83
2018-01-10T07:49:08.354Z,78.57
2018-01-10T07:51:35.930Z,79.82
2018-01-10T07:54:03.540Z,79.09
2018-01-10T07:56:31.109Z,79.23
2018-01-10T07:58:58.874Z,78.87
2018-01-10T08:01:26.476Z,79.98
2018-01-10T08:03:54.072Z,78.44
2018-01-10T08:06:21.625Z,79.09
2018-01-10T08:08:49.305Z,78.59
2018-01-10T08:11:17.856Z,78.44
2018-01-10T08:13:46.163Z,79.18
2018-01-10T08:16:14.452Z,78.22
2018-01-10T08:18:42.928Z,78.29
2018-01-10T08:21:10.508Z,78.39
2018-01-10T08:23:38.808Z,78.56
2018-01-10T08:26:07.288Z,78.45
2018-01-10T08:28:35.572Z,78.70
2018-01-10T08:31:04.203Z,78.06
2018-01-10T08:33:31.844Z,77.96
2018-01-10T08:35:59.501Z,78.01
2018-01-10T08:38:28.040Z,77.84
2018-01-10T08:40:55.678Z,77.63
2018-01-10T08:43:23.431Z,77.66
2018-01-10T08:45:51.070Z,77.99
2018-01-10T08:48:18.688Z,77.44
2018-01-10T08:50:46.461Z,77.07
2018-01-10T08:53:14.320Z,77.03
2018-01-10T08:55:41.848Z,76.77
2018-01-10T08:58:09.437Z,75.80
2018-01-10T09:00:37.339Z,77.04
2018-01-10T09:03:05.244Z,77.14
2018-01-10T09:05:32.807Z,77.48
2018-01-10T09:08:01.930Z,76.76
2018-01-10T09:10:29.491Z,77.00
2018-01-10T09:12:57.047Z,77.09
2018-01-10T09:15:24.636Z,76.44
2018-01-10T09:17:52.875Z,76.56
2018-01-10T09:20:20.505Z,76.41
2018-01-10T09:22:48.119Z,75.83
2018-01-10T09:25:15.871Z,76.21
2018-01-10T09:27:43.500Z,75.45
2018-01-10T09:30:11.242Z,76.88
2018-01-10T09:32:38.790Z,76.36
2018-01-10T09:35:06.363Z,76.28
2018-01-10T09:37:34.250Z,76.08
2018-01-10T09:40:01.803Z,75.98
2018-01-10T09:42:30.577Z,75.88
2018-01-10T09:44:58.173Z,77.00
2018-01-10T09:47:25.750Z,76.57
2018-01-10T09:49:53.393Z,76.61
2018-01-10T09:52:21.157Z,76.37
2018-01-10T09:54:48.783Z,76.58
2018-01-10T09:57:16.715Z,76.71
2018-01-10T09:59:44.431Z,75.82
2018-01-10T10:02:12.099Z,76.04
2018-01-10T10:04:40.537Z,75.90
2018-01-10T10:07:08.346Z,76.67
2018-01-10T10:09:35.996Z,75.83
2018-01-10T10:12:04.476Z,75.63
2018-01-10T10:14:32.248Z,75.19
2018-01-10T10:16:59.850Z,75.50
2018-01-10T10:19:27.441Z,74.86
2018-01-10T10:21:55.235Z,75.06
2018-01-10T10:24:23.786Z,75.76
2018-01-10T10:26:51.375Z,75.46
2018-01-10T10:29:19.131Z,75.72
2018-01-10T10:31:47.305Z,75.40
2018-01-10T10:34:14.955Z,75.87
2018-01-10T10:36:43.075Z,74.20
2018-01-10T10:39:11.067Z,73.64
2018-01-10T10:41:38.666Z,74.34
2018-01-10T10:44:06.519Z,74.61
2018-01-10T10:46:34.315Z,74.26
2018-01-10T10:49:02.874Z,73.52
2018-01-10T10:51:30.578Z,72.80
2018-01-10T10:53:58.169Z,73.56
2018-01-10T10:56:25.745Z,72.84
2018-01-10T10:58:53.326Z,73.22
2018-01-10T11:01:21.274Z,73.21
2018-01-10T11:03:48.862Z,72.57
2018-01-10T11:06:16.504Z,73.28
2018-01-10T11:08:45.123Z,72.24
2018-01-10T11:11:12.948Z,71.17
2018-01-10T11:13:40.549Z,71.08
2018-01-10T11:16:08.306Z,71.73
2018-01-10T11:18:35.923Z,71.20
2018-01-10T11:21:03.557Z,71.27
2018-01-10T11:23:31.235Z,71.49
2018-01-10T11:25:58.852Z,71.11
2018-01-10T11:28:28.453Z,71.67
2018-01-10T11:30:56.249Z,69.90
2018-01-10T11:33:23.947Z,70.83
2018-01-10T11:35:51.564Z,70.07
2018-01-10T11:38:19.156Z,70.34
2018-01-10T11:40:47.591Z,71.04
2018-01-10T11:43:15.151Z,70.56
2018-01-10T11:45:43.588Z,70.66
2018-01-10T11:48:12.607Z,69.96
2018-01-10T11:50:40.193Z,69.95
2018-01-10T11:53:07.968Z,70.35
2018-01-10T11:55:36.345Z,69.59
2018-01-10T11:58:04.909Z,69.99
2018-01-10T12:00:32.547Z,69.65
2018-01-10T12:03:00.135Z,69.89
2018-01-10T12:05:27.740Z,68.80
2018-01-10T12:07:55.413Z,69.50
2018-01-10T12:10:23.005Z,69.49
2018-01-10T12:12:50.820Z,69.03
2018-01-10T12:15:18.454Z,69.38
2018-01-10T12:17:46.116Z,69.71
2018-01-10T12:20:13.950Z,70.39
2018-01-10T12:22:45.023Z,70.18
2018-01-10T12:25:12.617Z,70.75
2018-01-10T12:27:40.253Z,70.19
2018-01-10T12:30:08.182Z,71.33
2018-01-10T12:32:35.791Z,70.61
2018-01-10T12:35:03.357Z,71.39
2018-01-10T12:37:32.014Z,70.81
2018-01-10T12:40:01.029Z,71.51
2018-01-10T12:42:29.222Z,71.24
2018-01-10T12:44:56.834Z,71.78
2018-01-10T12:47:24.473Z,71.45
2018-01-10T12:49:52.042Z,72.59
2018-01-10T12:52:19.626Z,72.45
2018-01-10T12:54:47.343Z,71.79
2018-01-10T12:57:14.963Z,71.42
2018-01-10T12:59:42.677Z,72.26
2018-01-10T13:02:10.324Z,73.35
2018-01-10T13:04:37.894Z,72.11
2018-01-10T13:07:05.478Z,72.34
2018-01-10T13:09:33.123Z,72.16
2018-01-10T13:12:00.717Z,71.69
2018-01-10T13:14:28.312Z,70.55
2018-01-10T13:16:56.296Z,70.94
2018-01-10T13:19:23.867Z,70.42
2018-01-10T13:21:51.475Z,70.68
2018-01-10T13:24:19.108Z,70.57
2018-01-10T13:26:47.902Z,70.58
2018-01-10T13:29:16.440Z,70.54
2018-01-10T13:31:44.096Z,69.86
2018-01-10T13:34:11.670Z,70.94
2018-01-10T13:36:39.332Z,71.20
2018-01-10T13:39:06.930Z,71.90
2018-01-10T13:41:34.494Z,71.16
2018-01-10T13:44:02.057Z,70.87
2018-01-10T13:46:30.888Z,71.05
2018-01-10T13:48:59.467Z,70.45
2018-01-10T13:51:27.051Z,70.75
2018-01-10T13:53:54.732Z,71.22
2018-01-10T13:56:23.100Z,70.77
2018-01-10T13:58:51.079Z,70.86
2018-01-10T14:01:18.757Z,71.03
2018-01-10T14:03:46.376Z,71.30
2018-01-10T14:06:13.976Z,71.06
2018-01-10T14:08:41.603Z,71.06
2018-01-10T14:11:09.218Z,71.03
2018-01-10T14:13:36.806Z,71.18
2018-01-10T14:16:04.600Z,71.56
2018-01-10T14:18:32.453Z,71.77
2018-01-10T14:21:00.190Z,72.34
2018-01-10T14:23:27.892Z,72.57
2018-01-10T14:25:56.648Z,72.27
2018-01-10T14:28:24.516Z,72.52
2018-01-10T14:30:52.310Z,72.81
2018-01-10T14:33:20.016Z,72.94
2018-01-10T14:35:47.576Z,72.27
2018-01-10T14:38:15.195Z,71.66
2018-01-10T14:40:42.948Z,72.68
2018-01-10T14:43:10.597Z,71.85
2018-01-10T14:45:38.193Z,71.92
2018-01-10T14:48:06.119Z,71.64
2018-01-10T14:50:33.945Z,72.04
2018-01-10T14:53:01.601Z,72.02
2018-01-10T14:55:29.230Z,72.07
2018-01-10T14:57:56.860Z,72.00
2018-01-10T15:00:24.611Z,72.80
2018-01-10T15:02:52.260Z,73.17
2018-01-10T15:05:20.071Z,74.24
2018-01-10T15:07:48.251Z,74.54
2018-01-10T15:10:16.057Z,74.71
2018-01-10T15:12:43.668Z,75.07
2018-01-10T15:15:11.545Z,75.78
2018-01-10T15:17:39.432Z,74.90
2018-01-10T15:20:07.215Z,75.61
2018-01-10T15:22:35.026Z,75.32
2018-01-10T15:25:02.867Z,75.35
2018-01-10T15:27:32.186Z,76.52
2018-01-10T15:29:59.840Z,77.12
2018-01-10T15:32:27.541Z,75.82
2018-01-10T15:34:55.154Z,76.21
2018-01-10T15:37:23.899Z,75.95
2018-01-10T15:39:51.571Z,76.50
2018-01-10T15:42:20.033Z,76.87
2018-01-10T15:44:47.624Z,77.43
2018-01-10T15:47:15.339Z,77.77
2018-01-10T15:49:42.965Z,77.38
2018-01-10T15:52:11.352Z,77.58
2018-01-10T15:54:39.001Z,77.80
2018-01-10T15:57:06.730Z,77.00
2018-01-10T15:59:34.575Z,78.14
2018-01-10T16:02:02.169Z,77.62
2018-01-10T16:04:29.772Z,78.10
2018-01-10T16:06:57.562Z,78.66
2018-01-10T16:09:25.245Z,79.07
2018-01-10T16:11:52.940Z,79.21
2018-01-10T16:14:21.137Z,79.55
2018-01-10T16:16:49.525Z,79.07
2018-01-10T16:19:17.685Z,79.30
2018-01-10T16:21:45.617Z,78.99
2018-01-10T16:24:13.446Z,79.34
2018-01-10T16:26:41.246Z,79.29
2018-01-10T16:29:09.224Z,78.32
2018-01-10T16:31:36.907Z,78.60
2018-01-10T16:34:04.617Z,78.64
2018-01-10T16:36:32.406Z,78.37
2018-01-10T16:39:00.942Z,78.48
2018-01-10T16:41:29.349Z,78.38
2018-01-10T16:43:57.113Z,78.68
2018-01-10T16:46:24.741Z,77.78
2018-01-10T16:48:52.348Z,78.17
2018-01-10T16:51:19.998Z,78.02
2018-01-10T16:53:48.248Z,78.79
2018-01-10T16:56:16.541Z,76.89
2018-01-10T16:58:44.417Z,77.99
2018-01-10T17:01:12.111Z,77.49
2018-01-10T17:03:40.752Z,77.70
2018-01-10T17:06:08.443Z,78.21
2018-01-10T17:08:36.084Z,78.79
2018-01-10T17:11:03.770Z,78.73
2018-01-10T17:13:32.348Z,79.10
2018-01-10T17:15:59.916Z,79.12
2018-01-10T17:18:28.450Z,77.78
2018-01-10T17:20:56.477Z,77.68
2018-01-10T17:23:24.362Z,78.75
2018-01-10T17:25:53.121Z,79.29
2018-01-10T17:28:20.700Z,78.57
2018-01-10T17:30:48.292Z,78.48
2018-01-10T17:33:15.849Z,77.96
2018-01-10T17:35:44.112Z,78.63
2018-01-10T17:38:11.844Z,78.21
2018-01-10T17:40:39.914Z,77.90
2018-01-10T17:43:07.676Z,77.28
2018-01-10T17:45:35.329Z,76.42
2018-01-10T17:48:03.777Z,76.98
2018-01-10T17:50:32.564Z,78.08
2018-01-10T17:53:00.372Z,77.79
2018-01-10T17:55:27.993Z,77.96
2018-01-10T17:57:56.098Z,77.75
2018-01-10T18:00:25.008Z,78.02
2018-01-10T18:02:52.608Z,77.40
2018-01-10T18:05:21.141Z,77.60
2018-01-10T18:07:48.816Z,77.31
2018-01-10T18:10:16.509Z,77.89
2018-01-10T18:12:45.764Z,77.96
2018-01-10T18:15:13.452Z,78.33
2018-01-10T18:17:41.571Z,78.44
2018-01-10T18:20:09.271Z,77.11
2018-01-10T18:22:36.966Z,77.73
2018-01-10T18:25:05.004Z,78.12
2018-01-10T18:27:32.792Z,78.14
2018-01-10T18:30:00.983Z,77.15
2018-01-10T18:32:28.599Z,76.88
2018-01-10T18:34:56.209Z,77.69
2018-01-10T18:37:24.036Z,78.00
2018-01-10T18:39:52.651Z,78.33
2018-01-10T18:42:20.689Z,79.26
2018-01-10T18:44:48.362Z,78.24
2018-01-10T18:47:15.997Z,77.62
2018-01-10T18:49:43.576Z,77.90
2018-01-10T18:52:11.150Z,77.59
2018-01-10T18:54:39.689Z,78.05
2018-01-10T18:57:08.019Z,78.21
2018-01-10T18:59:36.078Z,77.27
2018-01-10T19:02:04.577Z,76.57
2018-01-10T19:04:32.810Z,78.20
2018-01-10T19:07:00.592Z,77.56
2018-01-10T19:09:29.149Z,78.87
2018-01-10T19:11:58.309Z,77.29
2018-01-10T19:14:26.755Z,76.29
2018-01-10T19:16:55.370Z,75.87
2018-01-10T19:19:23.033Z,75.56
2018-01-10T19:21:50.759Z,76.78
2018-01-10T19:24:18.644Z,75.67
2018-01-10T19:26:47.090Z,76.29
2018-01-10T19:29:16.085Z,76.70
2018-01-10T19:31:43.701Z,75.29
2018-01-10T19:34:12.091Z,75.97
2018-01-10T19:36:40.344Z,75.57
2018-01-10T19:39:08.084Z,77.13
2018-01-10T19:41:35.703Z,78.40
2018-01-10T19:44:03.770Z,78.03
2018-01-10T19:46:31.586Z,78.26
2018-01-10T19:48:59.898Z,77.23
2018-01-10T19:51:28.328Z,76.63
2018-01-10T19:53:55.946Z,75.89
2018-01-10T19:56:24.809Z,76.21
2018-01-10T19:58:52.704Z,76.89
2018-01-10T20:01:20.457Z,77.91
2018-01-10T20:03:47.994Z,78.31
2018-01-10T20:06:15.557Z,78.42
2018-01-10T20:08:43.284Z,78.89
2018-01-10T20:11:10.982Z,78.33
2018-01-10T20:13:39.985Z,77.55
2018-01-10T20:16:07.580Z,78.34
2018-01-10T20:18:35.238Z,77.42
2018-01-10T20:21:02.780Z,76.99
2018-01-10T20:23:30.432Z,76.95
2018-01-10T20:25:58.023Z,76.68
2018-01-10T20:28:25.578Z,76.07
2018-01-10T20:30:53.279Z,76.63
2018-01-10T20:33:20.876Z,77.32
2018-01-10T20:35:48.413Z,77.42
2018-01-10T20:38:16.778Z,76.39
2018-01-10T20:40:45.606Z,77.82
2018-01-10T20:43:14.112Z,76.55
2018-01-10T20:45:41.744Z,76.15
2018-01-10T20:48:09.552Z,75.74
2018-01-10T20:50:37.148Z,77.28
2018-01-10T20:53:05.730Z,76.76
2018-01-10T20:55:34.208Z,77.83
2018-01-10T20:58:02.425Z,76.16
2018-01-10T21:00:30.116Z,76.66
2018-01-10T21:02:57.745Z,75.55
2018-01-10T21:05:25.381Z,78.09
2018-01-10T21:07:53.100Z,76.32
2018-01-10T21:10:20.710Z,77.74
2018-01-10T21:12:48.324Z,77.02
2018-01-10T21:15:15.983Z,76.76
2018-01-10T21:17:43.647Z,76.75
2018-01-10T21:20:11.216Z,76.52
2018-01-10T21:22:38.917Z,77.10
2018-01-10T21:25:06.538Z,77.21
2018-01-10T21:27:34.182Z,76.98
2018-01-10T21:30:01.849Z,76.96
2018-01-10T21:32:29.538Z,75.68
2018-01-10T21:34:57.784Z,74.90
2018-01-10T21:37:27.339Z,75.34
2018-01-10T21:39:55.816Z,74.61
2018-01-10T21:42:23.614Z,75.83
2018-01-10T21:44:51.429Z,75.84
2018-01-10T21:47:19.044Z,76.65
2018-01-10T21:49:46.657Z,75.47
2018-01-10T21:52:14.473Z,76.43
2018-01-10T21:54:42.062Z,75.54
2018-01-10T21:57:09.655Z,75.69
2018-01-10T21:59:38.266Z,76.90
2018-01-10T22:02:05.853Z,77.75
2018-01-10T22:04:33.632Z,76.34
2018-01-10T22:07:01.213Z,76.83
2018-01-10T22:09:28.862Z,76.80
2018-01-10T22:11:56.647Z,75.82
2018-01-10T22:14:24.543Z,76.17
2018-01-10T22:16:52.214Z,75.99
2018-01-10T22:19:19.808Z,75.93
2018-01-10T22:21:47.568Z,76.48
2018-01-10T22:24:16.133Z,76.36
2018-01-10T22:26:43.733Z,77.70
2018-01-10T22:29:11.344Z,76.23
2018-01-10T22:31:39.138Z,76.42
2018-01-10T22:34:06.719Z,77.03
2018-01-10T22:36:34.336Z,76.97
2018-01-10T22:39:02.309Z,77.50
2018-01-10T22:41:29.883Z,76.81
2018-01-10T22:43:57.447Z,78.16
2018-01-10T22:46:25.093Z,77.79
2018-01-10T22:48:53.316Z,78.60
2018-01-10T22:51:20.896Z,77.10
2018-01-10T22:53:48.492Z,77.81
2018-01-10T22:56:16.045Z,78.70
2018-01-10T22:58:43.830Z,78.61
2018-01-10T23:01:11.434Z,77.37
2018-01-10T23:03:39.195Z,78.25
2018-01-10T23:06:07.759Z,77.16
2018-01-10T23:08:38.791Z,77.28
2018-01-10T23:11:07.811Z,76.94
2018-01-10T23:13:36.757Z,75.53
2018-01-10T23:16:04.994Z,75.11
2018-01-10T23:18:34.659Z,75.09
2018-01-10T23:21:04.675Z,74.69
2018-01-10T23:23:32.882Z,75.46
2018-01-10T23:26:02.822Z,74.62
2018-01-10T23:28:31.925Z,73.63
2018-01-10T23:31:01.167Z,73.62
2018-01-10T23:33:30.227Z,73.97
2018-01-10T23:35:59.718Z,74.10
2018-01-10T23:38:28.114Z,73.96
2018-01-10T23:40:55.845Z,74.45
2018-01-10T23:43:23.442Z,73.31
2018-01-10T23:45:51.004Z,73.91
2018-01-10T23:48:19.014Z,74.31
2018-01-10T23:50:47.620Z,76.36
2018-01-10T23:53:16.816Z,75.13
2018-01-10T23:55:47.102Z,75.29
2018-01-10T23:58:16.634Z,74.54
